createdAt,value
2024-01-27T07:31:47.795Z,-2.1
2024-01-27T07:32:49.825Z,-2.1
2024-01-27T07:33:51.768Z,-2.1
2024-01-27T07:34:53.819Z,-2.1
2024-01-27T07:35:55.758Z,-2.1
2024-01-27T07:36:57.752Z,-2
2024-01-27T07:37:59.763Z,-2
2024-01-27T07:39:01.762Z,-1.9
2024-01-27T07:40:03.740Z,-1.9
2024-01-27T07:41:05.727Z,-1.9
2024-01-27T07:42:07.835Z,-1.9
2024-01-27T07:43:09.716Z,-1.9
2024-01-27T07:44:11.828Z,-1.9
2024-01-27T07:45:13.748Z,-1.9
2024-01-27T07:46:15.746Z,-1.9
2024-01-27T07:47:17.888Z,-1.9
2024-01-27T07:48:19.911Z,-1.9
2024-01-27T07:49:21.801Z,-1.9
2024-01-27T07:50:23.736Z,-1.9
2024-01-27T07:51:25.790Z,-1.9
2024-01-27T07:52:27.719Z,-1.9
2024-01-27T07:53:29.710Z,-1.9
2024-01-27T07:54:31.772Z,-1.9
2024-01-27T07:55:33.744Z,-1.9
2024-01-27T07:56:35.737Z,-1.9
2024-01-27T07:57:37.773Z,-1.9
2024-01-27T07:58:39.699Z,-1.9
2024-01-27T07:59:41.743Z,-1.9
2024-01-27T08:00:43.800Z,-1.9
2024-01-27T08:01:45.692Z,-1.9
2024-01-27T08:02:47.768Z,-1.9
2024-01-27T08:03:49.754Z,-1.9
2024-01-27T08:04:51.717Z,-1.8
2024-01-27T08:05:53.734Z,-1.8
2024-01-27T08:06:55.712Z,-1.8
2024-01-27T08:07:57.685Z,-1.8
2024-01-27T08:08:59.702Z,-1.7
2024-01-27T08:10:01.711Z,-1.7
2024-01-27T08:11:03.707Z,-1.7
2024-01-27T08:12:05.706Z,-1.7
2024-01-27T08:13:07.674Z,-1.6
2024-01-27T08:14:09.680Z,-1.6
2024-01-27T08:15:11.763Z,-1.6
2024-01-27T08:16:13.695Z,-1.6
2024-01-27T08:17:15.673Z,-1.6
2024-01-27T08:18:17.791Z,-1.6
2024-01-27T08:19:19.775Z,-1.5
2024-01-27T08:20:21.700Z,-1.5
2024-01-27T08:21:23.714Z,-1.5
2024-01-27T08:22:25.668Z,-1.5
2024-01-27T08:23:27.682Z,-1.5
2024-01-27T08:24:29.780Z,-1.5
2024-01-27T08:25:31.717Z,-1.4
2024-01-27T08:26:33.659Z,-1.3
2024-01-27T08:27:35.769Z,-1.3
2024-01-27T08:28:37.659Z,-1.3
2024-01-27T08:29:39.685Z,-1.3
2024-01-27T08:30:41.716Z,-1.3
2024-01-27T08:31:43.736Z,-1.3
2024-01-27T08:32:45.685Z,-1.2
2024-01-27T08:33:47.809Z,-1.1
2024-01-27T08:34:49.713Z,-1.1
2024-01-27T08:35:51.653Z,-1.1
2024-01-27T08:36:53.653Z,-1.1
2024-01-27T08:37:55.643Z,-1.1
2024-01-27T08:38:57.676Z,-1.1
2024-01-27T08:39:59.654Z,-1.1
2024-01-27T08:41:01.847Z,-1
2024-01-27T08:42:03.649Z,-1
2024-01-27T08:43:05.661Z,-1
2024-01-27T08:44:07.636Z,-1
2024-01-27T08:45:09.658Z,-0.9
2024-01-27T08:46:11.635Z,-0.9
2024-01-27T08:47:13.632Z,-0.9
2024-01-27T08:48:15.741Z,-0.8
2024-01-27T08:49:17.706Z,-0.8
2024-01-27T08:50:19.631Z,-0.7
2024-01-27T08:51:21.703Z,-0.7
2024-01-27T08:52:23.654Z,-0.7
2024-01-27T08:53:25.665Z,-0.7
2024-01-27T08:54:27.668Z,-0.7
2024-01-27T08:55:29.712Z,-0.6
2024-01-27T08:56:31.661Z,-0.6
2024-01-27T08:57:33.682Z,-0.5
2024-01-27T08:58:35.633Z,-0.5
2024-01-27T08:59:37.618Z,-0.4
2024-01-27T09:00:39.675Z,-0.4
2024-01-27T09:01:41.637Z,-0.4
2024-01-27T09:02:43.637Z,-0.4
2024-01-27T09:03:45.641Z,-0.3
2024-01-27T09:04:47.690Z,-0.3
2024-01-27T09:05:49.646Z,-0.3
2024-01-27T09:06:51.650Z,-0.2
2024-01-27T09:07:53.606Z,-0.2
2024-01-27T09:08:55.608Z,-0.2
2024-01-27T09:09:57.615Z,-0.2
2024-01-27T09:10:59.650Z,-0.1
2024-01-27T09:12:01.690Z,-0.1
2024-01-27T09:13:03.612Z,-0.1
2024-01-27T09:14:05.601Z,0
2024-01-27T09:15:07.664Z,0
2024-01-27T09:16:09.625Z,0
2024-01-27T09:17:11.603Z,0
2024-01-27T09:18:13.729Z,0
2024-01-27T09:19:15.706Z,0
2024-01-27T09:20:17.649Z,0.1
2024-01-27T09:21:20.326Z,0.2
2024-01-27T09:22:22.289Z,0.2
2024-01-27T09:23:24.285Z,0.2
2024-01-27T09:24:26.874Z,0.2
2024-01-27T09:25:28.314Z,0.3
2024-01-27T09:26:30.285Z,0.3
2024-01-27T09:27:32.325Z,0.3
2024-01-27T09:28:34.285Z,0.3
2024-01-27T09:29:36.304Z,0.4
2024-01-27T09:30:39.731Z,0.4
2024-01-27T09:31:40.844Z,0.4
2024-01-27T09:32:44.428Z,0.5
2024-01-27T09:33:50.009Z,0.5
2024-01-27T09:34:51.946Z,0.5
2024-01-27T09:35:53.910Z,0.6
2024-01-27T09:36:55.861Z,0.6
2024-01-27T09:37:57.860Z,0.6
2024-01-27T09:38:59.905Z,0.6
2024-01-27T09:40:01.908Z,0.7
2024-01-27T09:41:03.858Z,0.8
2024-01-27T09:42:05.887Z,0.8
2024-01-27T09:43:07.859Z,0.8
2024-01-27T09:44:09.885Z,0.8
2024-01-27T09:45:11.969Z,0.9
2024-01-27T09:46:13.857Z,1
2024-01-27T09:47:15.851Z,1
2024-01-27T09:48:18.001Z,1
2024-01-27T09:49:20.047Z,1
2024-01-27T09:50:21.848Z,1.1
2024-01-27T09:51:23.967Z,1.1
2024-01-27T09:52:26.386Z,1.2
2024-01-27T09:53:27.873Z,1.4
2024-01-27T09:54:29.888Z,1.4
2024-01-27T09:55:31.927Z,1.5
2024-01-27T09:56:34.013Z,1.5
2024-01-27T09:57:36.105Z,1.6
2024-01-27T09:58:37.862Z,1.7
2024-01-27T09:59:39.831Z,1.7
2024-01-27T10:00:42.305Z,1.8
2024-01-27T10:01:43.834Z,1.9
2024-01-27T10:02:45.891Z,1.9
2024-01-27T10:03:47.936Z,2
2024-01-27T10:04:50.449Z,2.1
2024-01-27T10:05:51.849Z,2.2
2024-01-27T10:06:53.951Z,2.3
2024-01-27T10:07:58.121Z,2.4
2024-01-27T10:08:59.000Z,2.5
2024-01-27T10:10:00.976Z,2.7
2024-01-27T10:11:02.969Z,2.8
2024-01-27T10:12:05.016Z,2.9
2024-01-27T10:13:06.965Z,3
2024-01-27T10:14:08.958Z,3.1
2024-01-27T10:15:11.556Z,3.2
2024-01-27T10:16:12.984Z,3.3
2024-01-27T10:17:15.291Z,3.3
2024-01-27T10:18:17.670Z,3.5
2024-01-27T10:19:19.895Z,3.5
2024-01-27T10:20:22.230Z,3.6
2024-01-27T10:21:23.370Z,3.7
2024-01-27T10:22:25.167Z,3.9
2024-01-27T10:23:27.045Z,4
2024-01-27T10:24:29.222Z,4.2
2024-01-27T10:25:31.105Z,4.3
2024-01-27T10:26:33.084Z,4.5
2024-01-27T10:27:35.107Z,4.7
2024-01-27T10:28:37.041Z,4.9
2024-01-27T10:29:39.046Z,5
2024-01-27T10:30:41.180Z,5.3
2024-01-27T10:31:43.056Z,5.5
2024-01-27T10:32:45.054Z,5.8
2024-01-27T10:33:47.135Z,6.1
2024-01-27T10:34:49.116Z,6.4
2024-01-27T10:35:51.192Z,6.7
2024-01-27T10:36:53.036Z,7
2024-01-27T10:37:58.329Z,7.5
2024-01-27T10:39:01.022Z,8
2024-01-27T10:40:02.922Z,8.4
2024-01-27T10:41:04.994Z,8.8
2024-01-27T10:42:06.961Z,9.3
2024-01-27T10:43:08.874Z,9.8
2024-01-27T10:44:10.905Z,10.2
2024-01-27T10:45:13.067Z,10.6
2024-01-27T10:46:14.870Z,10.9
2024-01-27T10:47:16.882Z,11.1
2024-01-27T10:48:18.919Z,11.3
2024-01-27T10:49:21.551Z,11.4
2024-01-27T10:50:23.329Z,11.6
2024-01-27T10:51:24.897Z,11.7
2024-01-27T10:52:26.881Z,11.5
2024-01-27T10:53:28.902Z,11.5
2024-01-27T10:54:31.014Z,11.5
2024-01-27T10:55:32.862Z,11.5
2024-01-27T10:56:34.893Z,11.3
2024-01-27T10:57:36.940Z,11.1
2024-01-27T10:58:39.321Z,11.1
2024-01-27T10:59:41.224Z,11.3
2024-01-27T11:00:43.036Z,11.5
2024-01-27T11:01:44.864Z,11.5
2024-01-27T11:02:47.074Z,11.5
2024-01-27T11:03:49.210Z,11.5
2024-01-27T11:04:51.392Z,11.5
2024-01-27T11:05:53.042Z,11.5
2024-01-27T11:06:55.097Z,11.5
2024-01-27T11:07:56.886Z,11.8
2024-01-27T11:08:58.961Z,12
2024-01-27T11:10:01.159Z,12.2
2024-01-27T11:11:04.142Z,12.1
2024-01-27T11:12:05.227Z,12
2024-01-27T11:13:07.338Z,12
2024-01-27T11:14:09.223Z,12
2024-01-27T11:15:11.433Z,12.1
2024-01-27T11:16:13.106Z,12.3
2024-01-27T11:17:15.136Z,12.6
2024-01-27T11:18:17.186Z,12.8
2024-01-27T11:19:19.655Z,12.9
2024-01-27T11:20:21.655Z,13.1
2024-01-27T11:21:23.125Z,13
2024-01-27T11:22:25.195Z,13
2024-01-27T11:23:27.105Z,13.1
2024-01-27T11:24:29.309Z,13
2024-01-27T11:25:31.101Z,13
2024-01-27T11:26:34.552Z,13.1
2024-01-27T11:27:35.823Z,13.1
2024-01-27T11:28:37.818Z,13.3
2024-01-27T11:29:39.678Z,13.3
2024-01-27T11:30:41.384Z,13.3
2024-01-27T11:31:46.205Z,13
2024-01-27T11:32:47.366Z,12.9
2024-01-27T11:33:49.764Z,12.8
2024-01-27T11:34:51.452Z,12.6
2024-01-27T11:35:53.454Z,12.5
2024-01-27T11:36:55.268Z,12.3
2024-01-27T11:37:57.243Z,12.1
2024-01-27T11:38:59.368Z,11.9
2024-01-27T11:40:01.240Z,11.9
2024-01-27T11:41:03.452Z,11.5
2024-01-27T11:42:05.491Z,11.1
2024-01-27T11:43:08.885Z,11.1
2024-01-27T11:44:11.069Z,11.1
2024-01-27T11:45:13.035Z,11.1
2024-01-27T11:46:15.047Z,11.2
2024-01-27T11:47:17.267Z,11.1
2024-01-27T11:48:19.120Z,10.8
2024-01-27T11:49:21.116Z,10.4
2024-01-27T11:50:23.185Z,9.7
2024-01-27T11:51:25.271Z,9
2024-01-27T11:52:27.004Z,8.2
2024-01-27T11:53:29.006Z,7.5
2024-01-27T11:54:31.361Z,7
2024-01-27T11:55:33.127Z,6.6
2024-01-27T11:56:34.997Z,6.3
2024-01-27T11:57:37.012Z,6
2024-01-27T11:58:39.002Z,5.8
2024-01-27T11:59:41.027Z,5.6
2024-01-27T12:00:43.279Z,5.4
2024-01-27T12:01:45.113Z,5.3
2024-01-27T12:02:46.980Z,5.2
2024-01-27T12:03:49.070Z,5.1
2024-01-27T12:04:51.491Z,5.1
2024-01-27T12:05:53.419Z,5
2024-01-27T12:06:55.108Z,5
2024-01-27T12:07:56.977Z,4.9
2024-01-27T12:08:59.058Z,4.9
2024-01-27T12:10:01.517Z,4.9
2024-01-27T12:11:03.043Z,4.9
2024-01-27T12:12:05.003Z,4.9
2024-01-27T12:13:07.074Z,4.9
2024-01-27T12:14:09.015Z,4.9
2024-01-27T12:15:10.982Z,4.9
2024-01-27T12:16:13.336Z,4.9
2024-01-27T12:17:15.295Z,4.9
2024-01-27T12:18:19.351Z,4.9
2024-01-27T12:19:23.985Z,4.9
2024-01-27T12:20:25.892Z,4.9
2024-01-27T12:21:27.930Z,4.9
2024-01-27T12:22:29.875Z,4.9
2024-01-27T12:23:31.914Z,4.9
2024-01-27T12:24:33.919Z,4.9
2024-01-27T12:26:41.142Z,4.9
2024-01-27T12:27:43.725Z,4.9
2024-01-27T12:28:45.171Z,4.9
2024-01-27T12:29:47.323Z,4.9
2024-01-27T12:30:49.462Z,4.9
2024-01-27T12:31:51.488Z,4.9
2024-01-27T12:32:53.362Z,4.8
2024-01-27T12:33:55.740Z,4.8
2024-01-27T12:34:58.583Z,4.8
2024-01-27T12:36:00.344Z,4.9
2024-01-27T12:37:02.142Z,4.9
2024-01-27T12:38:04.124Z,4.9
2024-01-27T12:39:06.243Z,4.9
2024-01-27T12:40:08.101Z,4.9
2024-01-27T12:41:10.236Z,4.9
2024-01-27T12:42:12.188Z,4.9
2024-01-27T12:43:14.095Z,4.9
2024-01-27T12:44:16.094Z,4.9
2024-01-27T12:45:18.161Z,4.9
2024-01-27T12:46:20.343Z,4.9
2024-01-27T12:47:22.260Z,4.9
2024-01-27T12:48:24.179Z,4.9
2024-01-27T12:49:26.473Z,4.9
2024-01-27T12:50:28.115Z,4.9
2024-01-27T12:51:30.355Z,4.9
2024-01-27T12:52:32.093Z,4.8
2024-01-27T12:53:34.325Z,4.9
2024-01-27T12:54:37.380Z,4.9
2024-01-27T12:55:40.784Z,4.9
2024-01-27T12:56:43.214Z,4.9
2024-01-27T12:57:45.361Z,4.9
2024-01-27T12:58:47.325Z,4.9
2024-01-27T12:59:49.067Z,4.9
2024-01-27T13:00:51.172Z,4.9
2024-01-27T13:01:53.177Z,4.8
2024-01-27T13:02:55.433Z,4.8
2024-01-27T13:03:57.470Z,4.7
2024-01-27T13:04:58.809Z,4.7
2024-01-27T13:06:01.173Z,4.7
2024-01-27T13:07:02.911Z,4.7
2024-01-27T13:08:05.233Z,4.7
2024-01-27T13:09:06.798Z,4.7
2024-01-27T13:10:09.247Z,4.7
2024-01-27T13:11:10.810Z,4.7
2024-01-27T13:12:12.994Z,4.7
2024-01-27T13:13:14.931Z,4.7
2024-01-27T13:14:17.331Z,4.7
2024-01-27T13:15:19.134Z,4.7
2024-01-27T13:16:20.702Z,4.7
2024-01-27T13:17:22.817Z,4.7
2024-01-27T13:18:24.959Z,4.7
2024-01-27T13:19:26.831Z,4.7
2024-01-27T13:20:29.099Z,4.7
2024-01-27T13:21:31.023Z,4.6
2024-01-27T13:22:32.794Z,4.6
2024-01-27T13:23:34.754Z,4.6
2024-01-27T13:24:37.324Z,4.7
2024-01-27T13:25:38.690Z,4.7
2024-01-27T13:26:41.004Z,4.7
2024-01-27T13:27:42.719Z,4.7
2024-01-27T13:28:44.762Z,4.7
2024-01-27T13:29:46.832Z,4.7
2024-01-27T13:30:48.686Z,4.7
2024-01-27T13:31:50.678Z,4.7
2024-01-27T13:32:53.110Z,4.7
2024-01-27T13:33:54.809Z,4.7
2024-01-27T13:34:57.343Z,4.8
2024-01-27T13:35:59.175Z,4.8
2024-01-27T13:37:00.944Z,4.8
2024-01-27T13:38:02.990Z,4.8
2024-01-27T13:39:05.030Z,4.8
2024-01-27T13:40:06.756Z,4.7
2024-01-27T13:41:08.721Z,4.7
2024-01-27T13:42:11.224Z,4.7
2024-01-27T13:43:15.308Z,4.7
2024-01-27T13:44:17.461Z,4.7
2024-01-27T13:45:19.603Z,4.6
2024-01-27T13:46:22.684Z,4.6
2024-01-27T13:47:26.903Z,4.6
2024-01-27T13:48:29.290Z,4.5
2024-01-27T13:49:31.293Z,4.5
2024-01-27T13:50:32.912Z,4.5
2024-01-27T13:51:34.894Z,4.6
2024-01-27T13:52:36.873Z,4.5
2024-01-27T13:53:43.289Z,4.5
2024-01-27T13:54:48.620Z,4.5
2024-01-27T13:55:50.609Z,4.5
2024-01-27T13:56:52.643Z,4.5
2024-01-27T13:57:54.614Z,4.5
2024-01-27T13:58:56.610Z,4.5
2024-01-27T13:59:58.658Z,4.5
2024-01-27T14:01:00.662Z,4.5
2024-01-27T14:02:02.630Z,4.5
2024-01-27T14:03:04.732Z,4.5
2024-01-27T14:04:08.264Z,4.6
2024-01-27T14:05:10.026Z,4.6
2024-01-27T14:06:12.083Z,4.6
2024-01-27T14:07:14.036Z,4.5
2024-01-27T14:08:16.020Z,4.6
2024-01-27T14:09:18.037Z,4.6
2024-01-27T14:10:21.430Z,4.6
2024-01-27T14:11:22.175Z,4.6
2024-01-27T14:12:24.112Z,4.5
2024-01-27T14:13:26.114Z,4.6
2024-01-27T14:14:28.095Z,4.5
2024-01-27T14:15:30.163Z,4.5
2024-01-27T14:16:32.118Z,4.5
2024-01-27T14:17:34.093Z,4.5
2024-01-27T14:18:36.226Z,4.5
2024-01-27T14:19:38.269Z,4.5
2024-01-27T14:20:40.114Z,4.5
2024-01-27T14:21:42.108Z,4.5
2024-01-27T14:22:44.083Z,4.5
2024-01-27T14:23:46.084Z,4.5
2024-01-27T14:24:48.108Z,4.5
2024-01-27T14:25:50.110Z,4.5
2024-01-27T14:26:52.085Z,4.5
2024-01-27T14:27:54.075Z,4.5
2024-01-27T14:28:56.076Z,4.5
2024-01-27T14:29:58.141Z,4.5
2024-01-27T14:31:00.107Z,4.5
2024-01-27T14:32:02.076Z,4.5
2024-01-27T14:33:04.219Z,4.5
2024-01-27T14:34:06.172Z,4.5
2024-01-27T14:35:08.109Z,4.4
2024-01-27T14:36:10.115Z,4.4
2024-01-27T14:37:12.077Z,4.4
2024-01-27T14:38:14.068Z,4.3
2024-01-27T14:39:16.093Z,4.3
2024-01-27T14:40:18.058Z,4.2
2024-01-27T14:41:20.061Z,4.2
2024-01-27T14:42:22.077Z,4.2
2024-01-27T14:43:24.082Z,4.1
2024-01-27T14:44:26.090Z,4.1
2024-01-27T14:45:28.095Z,4.1
2024-01-27T14:46:30.090Z,4
2024-01-27T14:47:32.084Z,4
2024-01-27T14:48:34.235Z,3.9
2024-01-27T14:49:36.399Z,3.9
2024-01-27T14:50:38.058Z,3.9
2024-01-27T14:51:40.074Z,3.9
2024-01-27T14:52:42.084Z,3.9
2024-01-27T14:53:44.074Z,3.9
2024-01-27T14:54:46.062Z,3.9
2024-01-27T14:55:48.042Z,3.9
2024-01-27T14:56:50.049Z,3.9
2024-01-27T14:57:52.081Z,3.9
2024-01-27T14:58:54.054Z,3.9
2024-01-27T14:59:56.041Z,3.9
2024-01-27T15:00:58.107Z,3.9
2024-01-27T15:02:00.100Z,3.8
2024-01-27T15:03:02.117Z,3.9
2024-01-27T15:04:04.244Z,3.8
2024-01-27T15:05:06.029Z,3.8
2024-01-27T15:06:08.055Z,3.8
2024-01-27T15:07:10.111Z,3.7
2024-01-27T15:08:12.035Z,3.7
2024-01-27T15:09:14.057Z,3.7
2024-01-27T15:10:16.200Z,3.8
2024-01-27T15:11:18.046Z,3.7
2024-01-27T15:12:20.056Z,3.7
2024-01-27T15:13:22.062Z,3.7
2024-01-27T15:14:24.022Z,3.7
2024-01-27T15:15:26.071Z,3.6
2024-01-27T15:16:28.044Z,3.6
2024-01-27T15:17:30.065Z,3.5
2024-01-27T15:18:32.128Z,3.5
2024-01-27T15:19:39.974Z,3.5
2024-01-27T15:20:42.261Z,3.5
2024-01-27T15:21:44.274Z,3.5
2024-01-27T15:22:46.239Z,3.5
2024-01-27T15:23:48.233Z,3.5
2024-01-27T15:24:50.246Z,3.5
2024-01-27T15:25:52.257Z,3.4
2024-01-27T15:26:57.032Z,3.4
2024-01-27T15:28:11.372Z,3.3
2024-01-27T15:29:13.367Z,3.4
2024-01-27T15:30:15.858Z,3.3
2024-01-27T15:31:17.393Z,3.3
2024-01-27T15:32:19.367Z,3.3
2024-01-27T15:33:21.515Z,3.3
2024-01-27T15:34:23.407Z,3.3
2024-01-27T15:35:25.415Z,3.3
2024-01-27T15:36:27.406Z,3.2
2024-01-27T15:37:29.364Z,3.1
2024-01-27T15:38:31.365Z,3.1
2024-01-27T15:39:33.479Z,3.1
2024-01-27T15:40:35.410Z,3
2024-01-27T15:41:39.857Z,3
2024-01-27T15:42:41.724Z,2.9
2024-01-27T15:43:43.682Z,2.9
2024-01-27T15:44:45.707Z,2.9
2024-01-27T15:45:47.762Z,2.8
2024-01-27T15:46:49.679Z,2.7
2024-01-27T15:47:52.354Z,2.7
2024-01-27T15:48:57.314Z,2.6
2024-01-27T15:49:59.238Z,2.5
2024-01-27T15:51:01.091Z,2.5
2024-01-27T15:52:03.089Z,2.4
2024-01-27T15:53:05.079Z,2.3
2024-01-27T15:54:07.123Z,2.3
2024-01-27T15:55:09.561Z,2.2
2024-01-27T15:56:11.292Z,2.1
2024-01-27T15:57:13.109Z,2.1
2024-01-27T15:58:15.099Z,2
2024-01-27T15:59:17.099Z,1.9
2024-01-27T16:00:19.100Z,1.9
2024-01-27T16:01:21.076Z,1.8
2024-01-27T16:02:23.064Z,1.7
2024-01-27T16:03:25.104Z,1.7
2024-01-27T16:04:27.096Z,1.6
2024-01-27T16:05:29.060Z,1.6
2024-01-27T16:06:31.163Z,1.5
2024-01-27T16:07:33.070Z,1.6
2024-01-27T16:08:35.083Z,1.6
2024-01-27T16:09:37.067Z,1.6
2024-01-27T16:10:39.049Z,1.6
2024-01-27T16:11:41.071Z,1.6
2024-01-27T16:12:43.081Z,1.5
2024-01-27T16:13:45.048Z,1.5
2024-01-27T16:14:47.046Z,1.5
2024-01-27T16:15:49.081Z,1.4
2024-01-27T16:16:51.044Z,1.4
2024-01-27T16:17:53.623Z,1.4
2024-01-27T16:18:55.171Z,1.3
2024-01-27T16:19:57.068Z,1.2
2024-01-27T16:20:59.055Z,1.2
2024-01-27T16:22:01.065Z,1.2
2024-01-27T16:27:28.358Z,1
2024-01-27T16:28:33.298Z,1
2024-01-27T16:32:54.296Z,0.8
2024-01-27T16:33:56.335Z,0.8
2024-01-27T16:39:32.007Z,0.8
2024-01-27T16:40:33.942Z,0.8
2024-01-27T16:41:35.938Z,0.8
2024-01-27T16:42:37.991Z,0.8
2024-01-27T16:43:39.911Z,0.6
2024-01-27T16:44:41.909Z,0.6
2024-01-27T16:45:43.960Z,0.6
2024-01-27T16:46:45.908Z,0.6
2024-01-27T16:47:47.938Z,0.6
2024-01-27T16:48:49.954Z,0.5
2024-01-27T16:49:51.968Z,0.5
2024-01-27T16:50:53.931Z,0.4
2024-01-27T16:51:55.901Z,0.4
2024-01-27T16:52:57.899Z,0.4
2024-01-27T16:54:00.287Z,0.3
2024-01-27T16:55:01.976Z,0.3
2024-01-27T16:56:03.916Z,0.4
2024-01-27T16:57:05.909Z,0.4
2024-01-27T16:58:07.894Z,0.4
2024-01-27T16:59:09.915Z,0.4
2024-01-27T17:00:12.189Z,0.4
2024-01-27T17:01:13.924Z,0.3
2024-01-27T17:02:15.894Z,0.3
2024-01-27T17:03:17.970Z,0.3
2024-01-27T17:04:20.054Z,0.3
2024-01-27T17:05:21.968Z,0.2
2024-01-27T17:06:23.920Z,0.2
2024-01-27T17:07:25.880Z,0.2
2024-01-27T17:08:27.911Z,0.2
2024-01-27T17:09:29.916Z,0.2
2024-01-27T17:10:32.013Z,0.2
2024-01-27T17:11:33.870Z,0.1
2024-01-27T17:12:35.914Z,0.1
2024-01-27T17:13:37.901Z,0.2
2024-01-27T17:14:39.862Z,0.2
2024-01-27T17:15:41.891Z,0.3
2024-01-27T17:16:43.871Z,0.3
2024-01-27T17:17:45.979Z,0.3
2024-01-27T17:18:48.043Z,0.3
2024-01-27T17:19:50.156Z,0.4
2024-01-27T17:20:51.864Z,0.4
2024-01-27T17:21:53.881Z,0.3
2024-01-27T17:22:55.881Z,0.4
2024-01-27T17:23:58.159Z,0.3
2024-01-27T17:25:00.033Z,0.3
2024-01-27T17:26:02.411Z,0.3
2024-01-27T17:27:06.376Z,0.3
2024-01-27T17:28:09.977Z,0.2
2024-01-27T17:29:11.928Z,0.1
2024-01-27T17:30:14.118Z,0
2024-01-27T17:31:15.807Z,0
2024-01-27T17:32:18.149Z,0
2024-01-27T17:33:20.147Z,-0.1
2024-01-27T17:34:22.101Z,-0.1
2024-01-27T17:35:24.261Z,-0.1
2024-01-27T17:36:25.839Z,-0.2
2024-01-27T17:37:28.065Z,-0.2
2024-01-27T17:38:31.490Z,-0.3
2024-01-27T17:39:33.560Z,-0.3
2024-01-27T17:40:35.506Z,-0.4
2024-01-27T17:41:37.941Z,-0.4
2024-01-27T17:42:39.607Z,-0.4
2024-01-27T17:43:41.477Z,-0.5
2024-01-27T17:44:43.720Z,-0.5
2024-01-27T17:45:45.842Z,-0.5
2024-01-27T17:46:48.092Z,-0.6
2024-01-27T17:47:49.586Z,-0.6
2024-01-27T17:48:51.746Z,-0.6
2024-01-27T17:49:53.592Z,-0.7
2024-01-27T17:50:55.491Z,-0.7
2024-01-27T17:51:57.796Z,-0.7
2024-01-27T17:52:59.476Z,-0.7
2024-01-27T17:54:01.512Z,-0.7
2024-01-27T17:55:03.525Z,-0.7
2024-01-27T17:56:05.488Z,-0.7
2024-01-27T17:57:07.813Z,-0.7
2024-01-27T17:58:09.787Z,-0.7
2024-01-27T17:59:11.830Z,-0.7
2024-01-27T18:00:13.923Z,-0.8
2024-01-27T18:01:15.573Z,-0.8
2024-01-27T18:02:18.008Z,-0.8
2024-01-27T18:03:19.802Z,-0.9
2024-01-27T18:04:22.206Z,-0.9
2024-01-27T18:05:24.782Z,-0.9
2024-01-27T18:06:30.285Z,-0.9
2024-01-27T18:07:32.583Z,-0.9
2024-01-27T18:08:34.628Z,-0.9
2024-01-27T18:09:36.708Z,-0.9
2024-01-27T18:10:39.148Z,-0.9
2024-01-27T18:11:41.094Z,-0.9
2024-01-27T18:12:43.215Z,-0.9
2024-01-27T18:13:46.447Z,-0.9
2024-01-27T18:14:48.489Z,-0.9
2024-01-27T18:15:50.329Z,-0.9
2024-01-27T18:16:52.342Z,-0.9
2024-01-27T18:17:54.359Z,-0.9
2024-01-27T18:18:56.065Z,-0.9
2024-01-27T18:19:58.046Z,-0.9
2024-01-27T18:21:00.075Z,-0.9
2024-01-27T18:22:02.001Z,-0.9
2024-01-27T18:23:04.032Z,-0.9
2024-01-27T18:24:06.456Z,-1
2024-01-27T18:25:08.437Z,-1
2024-01-27T18:26:10.064Z,-1
2024-01-27T18:27:12.092Z,-1
2024-01-27T18:28:14.354Z,-1.1
2024-01-27T18:29:16.048Z,-1.1
2024-01-27T18:30:18.084Z,-1.1
2024-01-27T18:31:20.049Z,-1.1
2024-01-27T18:32:22.072Z,-1.1
2024-01-27T18:33:24.146Z,-1.1
2024-01-27T18:34:26.090Z,-1.1
2024-01-27T18:35:28.056Z,-1.1
2024-01-27T18:36:30.078Z,-1.2
2024-01-27T18:37:32.066Z,-1.2
2024-01-27T18:38:34.033Z,-1.3
2024-01-27T18:39:36.068Z,-1.3
2024-01-27T18:40:38.044Z,-1.3
2024-01-27T18:41:40.057Z,-1.3
2024-01-27T18:42:42.096Z,-1.3
2024-01-27T18:43:44.054Z,-1.3
2024-01-27T18:44:46.023Z,-1.3
2024-01-27T18:45:48.102Z,-1.2
2024-01-27T18:46:50.052Z,-1.3
2024-01-27T18:47:52.085Z,-1.3
2024-01-27T18:48:54.602Z,-1.3
2024-01-27T18:49:56.637Z,-1.3
2024-01-27T18:50:58.720Z,-1.3
2024-01-27T18:52:00.900Z,-1.3
2024-01-27T18:53:02.029Z,-1.3
2024-01-27T18:54:04.142Z,-1.3
2024-01-27T18:55:06.015Z,-1.3
2024-01-27T18:56:08.044Z,-1.3
2024-01-27T18:57:10.057Z,-1.4
2024-01-27T18:58:12.285Z,-1.4
2024-01-27T18:59:14.168Z,-1.4
2024-01-27T19:00:16.050Z,-1.4
2024-01-27T19:01:18.051Z,-1.4
2024-01-27T19:02:20.014Z,-1.4
2024-01-27T19:03:22.052Z,-1.5
2024-01-27T19:04:24.008Z,-1.5
2024-01-27T19:05:26.050Z,-1.5
2024-01-27T19:06:28.067Z,-1.5
2024-01-27T19:07:30.001Z,-1.5
2024-01-27T19:08:32.000Z,-1.5
2024-01-27T19:09:34.036Z,-1.5
2024-01-27T19:10:36.019Z,-1.5
2024-01-27T19:11:37.991Z,-1.6
2024-01-27T19:12:40.021Z,-1.6
2024-01-27T19:13:41.993Z,-1.6
2024-01-27T19:14:44.040Z,-1.6
2024-01-27T19:15:46.060Z,-1.6
2024-01-27T19:16:47.989Z,-1.6
2024-01-27T19:17:50.221Z,-1.6
2024-01-27T19:18:52.193Z,-1.6
2024-01-27T19:19:54.048Z,-1.6
2024-01-27T19:20:56.818Z,-1.6
2024-01-27T19:21:58.815Z,-1.6
2024-01-27T19:23:00.808Z,-1.6
2024-01-27T19:24:02.859Z,-1.6
2024-01-27T19:25:04.805Z,-1.6
2024-01-27T19:26:06.806Z,-1.6
2024-01-27T19:27:08.839Z,-1.6
2024-01-27T19:28:10.840Z,-1.6
2024-01-27T19:29:12.827Z,-1.6
2024-01-27T19:30:14.834Z,-1.6
2024-01-27T19:31:16.804Z,-1.6
2024-01-27T19:32:18.796Z,-1.5
2024-01-27T19:33:20.983Z,-1.5
2024-01-27T19:34:22.905Z,-1.5
2024-01-27T19:35:24.830Z,-1.5
2024-01-27T19:36:26.804Z,-1.5
2024-01-27T19:37:28.821Z,-1.5
2024-01-27T19:38:30.824Z,-1.5
2024-01-27T19:39:32.794Z,-1.3
2024-01-27T19:40:34.790Z,-1.3
2024-01-27T19:41:36.784Z,-1.2
2024-01-27T19:42:38.836Z,-1.1
2024-01-27T19:43:40.793Z,-1
2024-01-27T19:44:42.794Z,-1
2024-01-27T19:45:44.873Z,-0.9
2024-01-27T19:46:46.834Z,-0.9
2024-01-27T19:47:48.834Z,-0.9
2024-01-27T19:48:50.948Z,-0.8
2024-01-27T19:49:52.944Z,-0.8
2024-01-27T19:50:54.882Z,-0.7
2024-01-27T19:51:57.078Z,-0.7
2024-01-27T19:52:58.775Z,-0.7
2024-01-27T19:54:00.821Z,-0.6
2024-01-27T19:55:02.798Z,-0.6
2024-01-27T19:56:04.798Z,-0.6
2024-01-27T19:57:06.855Z,-0.6
2024-01-27T19:58:08.780Z,-0.5
2024-01-27T19:59:10.766Z,-0.5
2024-01-27T20:00:12.811Z,-0.5
2024-01-27T20:01:14.841Z,-0.5
2024-01-27T20:02:16.761Z,-0.5
2024-01-27T20:03:18.811Z,-0.6
2024-01-27T20:04:21.096Z,-0.6
2024-01-27T20:05:22.815Z,-0.7
2024-01-27T20:06:24.863Z,-0.7
2024-01-27T20:07:26.759Z,-0.8
2024-01-27T20:08:28.752Z,-0.8
2024-01-27T20:09:30.787Z,-0.9
2024-01-27T20:10:32.802Z,-0.9
2024-01-27T20:11:34.753Z,-1
2024-01-27T20:12:36.772Z,-1.1
2024-01-27T20:13:38.752Z,-1.1
2024-01-27T20:14:40.777Z,-1.1
2024-01-27T20:15:42.808Z,-1.1
2024-01-27T20:16:44.771Z,-1
2024-01-27T20:17:46.750Z,-1
2024-01-27T20:18:48.908Z,-1
2024-01-27T20:19:50.968Z,-0.9
2024-01-27T20:20:52.749Z,-0.9
2024-01-27T20:21:54.750Z,-0.7
2024-01-27T20:22:56.747Z,-0.7
2024-01-27T20:23:58.788Z,-0.7
2024-01-27T20:25:00.779Z,-0.7
2024-01-27T20:26:02.768Z,-0.7
2024-01-27T20:27:04.799Z,-0.7
2024-01-27T20:28:06.746Z,-0.7
2024-01-27T20:29:08.764Z,-0.7
2024-01-27T20:30:10.751Z,-0.6
2024-01-27T20:31:12.730Z,-0.6
2024-01-27T20:32:14.757Z,-0.6
2024-01-27T20:33:16.807Z,-0.6
2024-01-27T20:34:19.034Z,-0.5
2024-01-27T20:35:20.807Z,-0.5
2024-01-27T20:36:22.738Z,-0.5
2024-01-27T20:37:24.785Z,-0.5
2024-01-27T20:38:26.748Z,-0.5
2024-01-27T20:39:28.782Z,-0.5
2024-01-27T20:40:30.717Z,-0.5
2024-01-27T20:41:32.722Z,-0.5
2024-01-27T20:42:34.772Z,-0.6
2024-01-27T20:43:36.740Z,-0.6
2024-01-27T20:44:38.730Z,-0.6
2024-01-27T20:45:40.776Z,-0.7
2024-01-27T20:46:42.713Z,-0.7
2024-01-27T20:47:44.816Z,-0.8
2024-01-27T20:48:46.838Z,-0.9
2024-01-27T20:49:48.842Z,-0.9
2024-01-27T20:50:50.702Z,-0.9
2024-01-27T20:51:52.713Z,-1
2024-01-27T20:52:54.733Z,-1
2024-01-27T20:53:56.702Z,-1
2024-01-27T20:54:58.703Z,-0.9
2024-01-27T20:56:00.707Z,-0.8
2024-01-27T20:57:02.735Z,-0.7
2024-01-27T20:58:04.720Z,-0.7
2024-01-27T20:59:06.696Z,-0.7
2024-01-27T21:00:08.729Z,-0.7
2024-01-27T21:01:10.791Z,-0.6
2024-01-27T21:02:12.725Z,-0.6
2024-01-27T21:03:14.776Z,-0.6
2024-01-27T21:04:16.861Z,-0.6
2024-01-27T21:05:18.696Z,-0.6
2024-01-27T21:06:20.734Z,-0.6
2024-01-27T21:07:22.811Z,-0.6
2024-01-27T21:08:24.697Z,-0.6
2024-01-27T21:09:26.710Z,-0.6
2024-01-27T21:10:28.677Z,-0.6
2024-01-27T21:11:30.730Z,-0.6
2024-01-27T21:12:32.711Z,-0.6
2024-01-27T21:13:34.697Z,-0.6
2024-01-27T21:14:36.679Z,-0.6
2024-01-27T21:15:38.817Z,-0.5
2024-01-27T21:16:40.701Z,-0.5
2024-01-27T21:17:42.741Z,-0.4
2024-01-27T21:18:44.749Z,-0.4
2024-01-27T21:19:46.780Z,-0.3
2024-01-27T21:20:48.694Z,-0.2
2024-01-27T21:21:50.681Z,-0.2
2024-01-27T21:22:52.675Z,-0.1
2024-01-27T21:23:54.676Z,-0.1
2024-01-27T21:24:56.722Z,-0.1
2024-01-27T21:26:00.358Z,-0.1
2024-01-27T21:27:04.479Z,-0.1
2024-01-27T21:28:06.467Z,-0.2
2024-01-27T21:29:08.460Z,-0.3
2024-01-27T21:30:10.569Z,-0.3
2024-01-27T21:31:12.451Z,-0.3
2024-01-27T21:32:14.443Z,-0.3
2024-01-27T21:33:16.507Z,-0.3
2024-01-27T21:34:18.575Z,-0.2
2024-01-27T21:35:20.485Z,-0.2
2024-01-27T21:36:22.441Z,-0.1
2024-01-27T21:37:24.836Z,-0.1
2024-01-27T21:38:26.432Z,-0.1
2024-01-27T21:39:28.491Z,-0.1
2024-01-27T21:40:30.440Z,0
2024-01-27T21:41:32.433Z,0
2024-01-27T21:42:34.461Z,0
2024-01-27T21:43:36.465Z,0
2024-01-27T21:44:38.462Z,0
2024-01-27T21:45:40.600Z,0
2024-01-27T21:46:42.445Z,-0.1
2024-01-27T21:47:44.452Z,-0.1
2024-01-27T21:48:46.506Z,-0.1
2024-01-27T21:49:48.571Z,-0.1